Aérodrome :
LOGIN :

S'inscrire | Disclaimer

   EN    FR    IT 

 










Légende :    VFR   VFR Marginal   IFR   IFR Intensif   IFR Très Intensif
Visi : 
Plafond : 
>= 8 km
>= 3000ft
5 à 8 km
1000 à 3000 ft
1500m à 5 km
500 à 1000 ft
800 à 1500m
200 à 500 ft
< 800m
< 200 ft
Symboles :   Orages  Brouillard  Fortes neiges  Fortes précipitations  Vent > 20 kt
SIGMETs :   Divers  Orages  Givrage  Turbulence  Onde Orograph.  Cendres Volcan.







- Altitude de l'aérodrome : 1989 ft
- Code IATA : KLV


LKKV - Karlovy Vary

DERNIER METAR :
  • 131500Z 09008KT 9999 BKN013 M04/M06 Q1017 R29/520295

METARs EXPIRÉS :
  • 131430Z 07010KT 9999 BKN012 M04/M05 Q1017 R29/520295
  • 131400Z 07010KT 9999 BKN013 M04/M06 Q1017 R29/520295
  • 131330Z 09009KT 9999 FEW011 BKN013 M04/M06 Q1017 R29/520295
  • 131300Z 07009KT 9999 SCT011 BKN013 M04/M06 Q1017 R29/520295
  • 131230Z 07007KT 9999 BKN017 M03/M06 Q1017 R29/520295

TAF TAF LKKV
Valide du 13 à 12h jusqu'au 14 à 18h UTC


131100Z 1312/1418 08006KT 9999 SCT013 BKN023
TEMPO 1312/1408 BKN013
PROB30
TEMPO 1318/1408 4000 BR BKN007
Pas de NOTAMs connus pour ce terrain.



MET'MAP, la Météo Aéronautique d'un coup d'oeil ! - Copyright ORBIFLY Décembre 2007 - Disclaimer

ORBIFLY MET'MAP TEAM :

Programmation & Développement : Alexandra Zaïnal
Conception & Développement : Baudouin d'Aumeries
Co-Programmation & Développement : Marc-Olivier Méhu
Soutien technique & logistique : Manuel Goepfert

Contact : metmap@orbifly.com




SOURCES & CREDITS :

   NOAA